createdAt,value
2022-09-27T00:02:20.735Z,99.90
2022-09-27T00:04:50.507Z,99.90
2022-09-27T00:07:18.778Z,99.90
2022-09-27T00:09:47.061Z,99.90
2022-09-27T00:12:15.344Z,99.90
2022-09-27T00:14:44.145Z,99.90
2022-09-27T00:17:12.451Z,99.90
2022-09-27T00:19:40.761Z,99.90
2022-09-27T00:22:10.394Z,99.90
2022-09-27T00:24:38.769Z,99.90
2022-09-27T00:27:07.026Z,99.90
2022-09-27T00:29:35.474Z,99.90
2022-09-27T00:32:03.830Z,99.90
2022-09-27T00:34:32.339Z,99.90
2022-09-27T00:37:00.689Z,99.90
2022-09-27T00:39:31.183Z,99.90
2022-09-27T00:41:59.617Z,99.90
2022-09-27T00:45:03.192Z,99.90
2022-09-27T00:47:44.008Z,99.90
2022-09-27T00:50:22.685Z,99.90
2022-09-27T00:52:58.939Z,99.90
2022-09-27T00:55:31.582Z,99.90
2022-09-27T00:58:00.197Z,99.90
2022-09-27T01:00:28.956Z,99.90
2022-09-27T01:02:58.280Z,99.90
2022-09-27T01:05:29.877Z,99.90
2022-09-27T01:08:00.957Z,99.90
2022-09-27T01:10:38.499Z,99.90
2022-09-27T01:13:13.982Z,99.90
2022-09-27T01:15:54.994Z,99.90
2022-09-27T01:18:33.333Z,99.90
2022-09-27T01:21:34.969Z,99.90
2022-09-27T01:24:28.433Z,99.90
2022-09-27T01:27:28.500Z,99.90
2022-09-27T01:30:17.153Z,99.90
2022-09-27T01:33:09.765Z,99.90
2022-09-27T01:35:46.282Z,99.90
2022-09-27T01:38:23.314Z,99.90
2022-09-27T01:40:59.252Z,99.90
2022-09-27T01:43:53.305Z,99.90
2022-09-27T01:46:33.432Z,99.90
2022-09-27T01:49:56.981Z,99.90
2022-09-27T01:52:32.225Z,99.90
2022-09-27T01:55:03.598Z,99.90
2022-09-27T01:57:48.204Z,99.90
2022-09-27T02:00:22.977Z,99.90
2022-09-27T02:02:59.293Z,99.90
2022-09-27T02:05:40.014Z,99.90
2022-09-27T02:08:26.480Z,99.90
2022-09-27T02:11:01.623Z,99.90
2022-09-27T02:13:39.218Z,99.90
2022-09-27T02:16:34.876Z,99.90
2022-09-27T02:19:23.030Z,99.90
2022-09-27T02:22:01.196Z,99.90
2022-09-27T02:24:38.694Z,99.90
2022-09-27T02:27:14.514Z,99.90
2022-09-27T02:29:48.303Z,99.90
2022-09-27T02:32:17.471Z,99.90
2022-09-27T02:34:49.970Z,99.90
2022-09-27T02:37:19.025Z,99.90
2022-09-27T02:39:49.550Z,99.90
2022-09-27T02:42:18.193Z,99.90
2022-09-27T02:44:47.041Z,99.90
2022-09-27T02:47:44.569Z,99.90
2022-09-27T02:50:40.268Z,99.90
2022-09-27T02:53:39.052Z,99.90
2022-09-27T02:56:33.823Z,99.90
2022-09-27T02:59:08.484Z,99.90
2022-09-27T03:02:11.141Z,99.90
2022-09-27T03:05:00.701Z,99.90
2022-09-27T03:07:30.955Z,99.90
2022-09-27T03:09:59.253Z,99.90
2022-09-27T03:12:27.985Z,99.90
2022-09-27T03:14:58.309Z,99.90
2022-09-27T03:17:45.124Z,99.90
2022-09-27T03:20:25.771Z,99.90
2022-09-27T03:23:06.647Z,99.90
2022-09-27T03:25:34.955Z,99.90
2022-09-27T03:28:03.690Z,99.90
2022-09-27T03:30:32.886Z,99.90
2022-09-27T03:33:01.359Z,99.90
2022-09-27T03:35:43.768Z,99.90
2022-09-27T03:38:13.829Z,99.90
2022-09-27T03:40:42.496Z,99.90
2022-09-27T03:43:11.916Z,99.90
2022-09-27T03:45:40.325Z,99.90
2022-09-27T03:48:11.564Z,99.90
2022-09-27T03:50:40.074Z,99.90
2022-09-27T03:53:08.456Z,99.90
2022-09-27T03:55:38.428Z,99.90
2022-09-27T03:58:07.128Z,99.90
2022-09-27T04:00:37.269Z,99.90
2022-09-27T04:03:06.247Z,99.90
2022-09-27T04:06:09.935Z,99.90
2022-09-27T04:08:41.936Z,99.90
2022-09-27T04:11:14.037Z,99.90
2022-09-27T04:13:44.942Z,99.90
2022-09-27T04:16:13.982Z,99.90
2022-09-27T04:18:53.069Z,99.90
2022-09-27T04:21:47.677Z,99.90
2022-09-27T04:24:17.255Z,99.90
2022-09-27T04:26:58.675Z,99.90
2022-09-27T04:29:28.325Z,99.90
2022-09-27T04:32:01.391Z,99.90
2022-09-27T04:35:05.788Z,99.90
2022-09-27T04:37:34.587Z,99.90
2022-09-27T04:40:05.333Z,99.90
2022-09-27T04:42:36.923Z,99.90
2022-09-27T04:45:05.845Z,99.90
2022-09-27T04:47:34.881Z,99.90
2022-09-27T04:50:03.708Z,99.90
2022-09-27T04:52:32.446Z,99.90
2022-09-27T04:55:00.787Z,99.90
2022-09-27T04:57:31.851Z,99.90
2022-09-27T05:00:01.822Z,99.90
2022-09-27T05:02:31.408Z,99.90
2022-09-27T05:05:22.843Z,99.90
2022-09-27T05:07:52.075Z,99.90
2022-09-27T05:10:32.240Z,99.90
2022-09-27T05:13:00.746Z,99.90
2022-09-27T05:15:30.569Z,99.90
2022-09-27T05:18:18.079Z,99.90
2022-09-27T05:21:15.684Z,99.90
2022-09-27T05:23:48.050Z,99.90
2022-09-27T05:26:16.849Z,99.90
2022-09-27T05:28:47.365Z,99.90
2022-09-27T05:31:18.570Z,99.90
2022-09-27T05:33:47.066Z,99.90
2022-09-27T05:36:35.032Z,99.90
2022-09-27T05:39:03.615Z,99.90
2022-09-27T05:41:32.894Z,99.90
2022-09-27T05:44:01.911Z,99.90
2022-09-27T05:46:31.670Z,99.90
2022-09-27T05:49:00.366Z,99.90
2022-09-27T05:51:28.707Z,99.90
2022-09-27T05:53:57.541Z,99.90
2022-09-27T05:56:29.858Z,99.90
2022-09-27T05:59:33.447Z,99.90
2022-09-27T06:02:38.636Z,99.90
2022-09-27T06:05:37.800Z,99.90
2022-09-27T06:08:10.345Z,99.90
2022-09-27T06:10:47.054Z,99.90
2022-09-27T06:13:17.859Z,99.90
2022-09-27T06:15:47.869Z,99.90
2022-09-27T06:18:18.347Z,99.90
2022-09-27T06:20:49.174Z,99.90
2022-09-27T06:23:19.896Z,99.90
2022-09-27T06:25:50.598Z,99.90
2022-09-27T06:28:24.728Z,99.90
2022-09-27T06:30:57.053Z,99.90
2022-09-27T06:33:33.710Z,99.90
2022-09-27T06:36:05.841Z,99.90
2022-09-27T06:38:36.202Z,99.90
2022-09-27T06:41:13.527Z,99.90
2022-09-27T06:44:11.334Z,99.90
2022-09-27T06:46:58.130Z,99.90
2022-09-27T06:49:48.153Z,99.90
2022-09-27T06:52:18.965Z,99.90
2022-09-27T06:54:47.226Z,99.90
2022-09-27T06:57:36.168Z,99.90
2022-09-27T07:00:23.495Z,99.90
2022-09-27T07:03:11.791Z,99.90
2022-09-27T07:06:01.731Z,99.90
2022-09-27T07:08:52.655Z,99.90
2022-09-27T07:11:22.092Z,99.90
2022-09-27T07:13:51.869Z,99.90
2022-09-27T07:16:20.308Z,99.90
2022-09-27T07:18:49.888Z,99.90
2022-09-27T07:21:19.978Z,99.90
2022-09-27T07:23:48.683Z,99.90
2022-09-27T07:26:17.486Z,99.90
2022-09-27T07:28:46.133Z,99.90
2022-09-27T07:31:17.718Z,99.90
2022-09-27T07:33:46.872Z,99.90
2022-09-27T07:36:15.763Z,99.90
2022-09-27T07:38:47.886Z,99.90
2022-09-27T07:41:19.518Z,99.90
2022-09-27T07:43:47.841Z,99.90
2022-09-27T07:46:16.619Z,99.90
2022-09-27T07:49:05.185Z,99.90
2022-09-27T07:51:59.479Z,99.90
2022-09-27T07:54:37.264Z,99.90
2022-09-27T07:57:24.856Z,99.90
2022-09-27T07:59:55.310Z,99.90
2022-09-27T08:02:25.315Z,99.90
2022-09-27T08:04:54.326Z,99.90
2022-09-27T08:07:24.999Z,99.90
2022-09-27T08:09:57.784Z,99.90
2022-09-27T08:12:26.274Z,99.90
2022-09-27T08:14:54.901Z,99.90
2022-09-27T08:17:23.940Z,99.90
2022-09-27T08:20:24.750Z,99.90
2022-09-27T08:23:09.473Z,99.90
2022-09-27T08:25:43.918Z,99.90
2022-09-27T08:28:31.935Z,99.90
2022-09-27T08:31:07.227Z,99.90
2022-09-27T08:33:40.588Z,99.90
2022-09-27T08:36:13.055Z,99.90
2022-09-27T08:38:42.255Z,99.90
2022-09-27T08:41:18.803Z,99.90
2022-09-27T08:43:55.186Z,99.90
2022-09-27T08:46:34.719Z,99.90
2022-09-27T08:49:08.289Z,99.90
2022-09-27T08:51:37.807Z,99.90
2022-09-27T08:54:10.322Z,99.90
2022-09-27T08:56:40.140Z,99.90
2022-09-27T08:59:14.720Z,99.90
2022-09-27T09:01:43.883Z,99.90
2022-09-27T09:04:23.465Z,99.90
2022-09-27T09:07:02.186Z,99.90
2022-09-27T09:09:40.557Z,99.90
2022-09-27T09:12:47.086Z,99.90
2022-09-27T09:18:51.629Z,99.90
2022-09-27T09:21:43.942Z,99.90
2022-09-27T09:24:28.226Z,99.90
2022-09-27T09:27:03.434Z,99.90
2022-09-27T09:29:55.576Z,99.90
2022-09-27T09:32:34.884Z,99.90
2022-09-27T09:35:12.258Z,99.90
2022-09-27T09:37:43.030Z,99.90
2022-09-27T09:40:22.415Z,99.90
2022-09-27T09:42:58.502Z,99.90
2022-09-27T09:45:31.615Z,99.90
2022-09-27T09:48:08.587Z,99.90
2022-09-27T09:50:43.319Z,99.90
2022-09-27T09:53:16.444Z,99.90
2022-09-27T09:55:49.586Z,99.90
2022-09-27T09:58:25.112Z,99.90
2022-09-27T10:01:15.518Z,99.90
2022-09-27T10:03:44.297Z,99.90
2022-09-27T10:06:15.797Z,99.90
2022-09-27T10:08:44.805Z,99.90
2022-09-27T10:11:47.261Z,99.90
2022-09-27T10:14:24.293Z,99.90
2022-09-27T10:16:59.367Z,99.90
2022-09-27T10:19:31.416Z,99.90
2022-09-27T10:22:05.122Z,99.90
2022-09-27T10:24:55.113Z,99.90
2022-09-27T10:27:57.298Z,99.90
2022-09-27T10:30:35.615Z,99.90
2022-09-27T10:33:19.011Z,99.90
2022-09-27T10:35:51.691Z,99.90
2022-09-27T10:38:31.066Z,99.90
2022-09-27T10:41:23.080Z,99.90
2022-09-27T10:43:52.203Z,99.90
2022-09-27T10:46:34.053Z,99.90
2022-09-27T10:49:26.805Z,99.90
2022-09-27T10:51:58.606Z,99.90
2022-09-27T10:54:32.619Z,99.90
2022-09-27T10:57:05.213Z,99.90
2022-09-27T10:59:37.141Z,99.90
2022-09-27T11:02:07.692Z,99.90
2022-09-27T11:04:40.245Z,99.90
2022-09-27T11:07:15.516Z,99.90
2022-09-27T11:09:55.736Z,99.90
2022-09-27T11:12:25.751Z,99.90
2022-09-27T11:14:58.641Z,99.90
2022-09-27T11:17:33.975Z,99.90
2022-09-27T11:20:26.659Z,99.90
2022-09-27T11:23:23.295Z,99.90
2022-09-27T11:26:18.780Z,99.90
2022-09-27T11:28:59.184Z,99.90
2022-09-27T11:32:03.071Z,99.90
2022-09-27T11:34:40.048Z,99.90
2022-09-27T11:37:17.635Z,99.90
2022-09-27T11:40:02.160Z,99.90
2022-09-27T11:42:56.678Z,99.90
2022-09-27T11:46:02.963Z,99.90
2022-09-27T11:48:57.271Z,99.90
2022-09-27T11:51:45.739Z,99.90
2022-09-27T11:54:36.264Z,99.90
2022-09-27T11:57:11.664Z,99.90
2022-09-27T12:00:06.306Z,99.90
2022-09-27T12:03:19.143Z,99.90
2022-09-27T12:06:06.337Z,99.90
2022-09-27T12:08:59.378Z,99.90
2022-09-27T12:11:31.595Z,99.90
2022-09-27T12:14:04.910Z,99.90
2022-09-27T12:16:38.295Z,99.90
2022-09-27T12:19:16.658Z,99.90
2022-09-27T12:22:05.922Z,99.90
2022-09-27T12:24:39.448Z,99.90
2022-09-27T12:27:20.296Z,99.90
2022-09-27T12:29:51.439Z,99.90
2022-09-27T12:32:26.778Z,99.90
2022-09-27T12:35:00.286Z,99.90
2022-09-27T12:37:32.239Z,99.90
2022-09-27T12:40:04.950Z,99.50
2022-09-27T12:45:36.656Z,99.00
2022-09-27T12:48:13.502Z,97.30
2022-09-27T12:50:46.073Z,96.90
2022-09-27T12:53:20.005Z,95.60
2022-09-27T12:56:19.445Z,96.70
2022-09-27T12:59:26.109Z,97.10
2022-09-27T13:02:21.146Z,97.60
2022-09-27T13:05:06.986Z,96.60
2022-09-27T13:07:52.279Z,97.40
2022-09-27T13:10:50.181Z,98.50
2022-09-27T13:13:39.824Z,98.90
2022-09-27T13:16:10.882Z,98.90
2022-09-27T13:19:02.858Z,98.00
2022-09-27T13:22:01.658Z,96.50
2022-09-27T13:24:47.198Z,97.50
2022-09-27T13:27:43.922Z,97.90
2022-09-27T13:30:49.408Z,98.00
2022-09-27T13:33:45.254Z,97.30
2022-09-27T13:36:28.540Z,96.60
2022-09-27T13:39:24.298Z,97.20
2022-09-27T13:42:32.534Z,98.80
2022-09-27T13:45:24.143Z,99.20
2022-09-27T13:47:55.219Z,99.10
2022-09-27T13:50:40.766Z,99.70
2022-09-27T13:53:25.632Z,98.60
2022-09-27T13:55:55.303Z,95.90
2022-09-27T13:58:49.971Z,96.50
2022-09-27T14:01:43.403Z,96.60
2022-09-27T14:04:19.792Z,97.20
2022-09-27T14:06:51.573Z,96.80
2022-09-27T14:09:24.664Z,97.40
2022-09-27T14:12:10.125Z,96.10
2022-09-27T14:14:38.652Z,95.20
2022-09-27T14:17:10.210Z,96.50
2022-09-27T14:19:42.346Z,95.90
2022-09-27T14:22:15.998Z,97.10
2022-09-27T14:24:55.075Z,97.50
2022-09-27T14:27:42.654Z,97.90
2022-09-27T14:30:28.895Z,98.30
2022-09-27T14:33:31.170Z,97.90
2022-09-27T14:36:25.487Z,97.10
2022-09-27T14:38:58.853Z,97.30
2022-09-27T14:41:37.620Z,97.40
2022-09-27T14:44:15.461Z,97.80
2022-09-27T14:46:43.576Z,98.10
2022-09-27T14:49:21.976Z,98.80
2022-09-27T14:51:54.899Z,99.20
2022-09-27T14:54:26.547Z,99.00
2022-09-27T14:56:56.722Z,99.60
2022-09-27T14:59:31.049Z,99.90
2022-09-27T15:02:01.822Z,99.90
2022-09-27T15:04:33.131Z,99.90
2022-09-27T15:07:03.196Z,99.90
2022-09-27T15:09:33.422Z,99.90
2022-09-27T15:12:05.139Z,99.90
2022-09-27T15:14:41.508Z,99.90
2022-09-27T15:17:18.337Z,99.90
2022-09-27T15:20:01.693Z,99.90
2022-09-27T15:22:48.345Z,99.90
2022-09-27T15:25:20.337Z,99.90
2022-09-27T15:27:54.584Z,99.90
2022-09-27T15:30:29.868Z,99.90
2022-09-27T15:32:58.647Z,99.90
2022-09-27T15:35:30.151Z,99.90
2022-09-27T15:38:33.043Z,99.90
2022-09-27T15:41:07.573Z,99.90
2022-09-27T15:43:39.514Z,99.90
2022-09-27T15:46:29.147Z,99.90
2022-09-27T15:49:23.516Z,99.90
2022-09-27T15:51:53.437Z,99.90
2022-09-27T15:54:22.695Z,99.90
2022-09-27T15:56:55.431Z,99.90
2022-09-27T15:59:26.674Z,99.90
2022-09-27T16:02:00.454Z,99.90
2022-09-27T16:04:31.296Z,99.90
2022-09-27T16:07:02.687Z,99.90
2022-09-27T16:09:30.964Z,99.90
2022-09-27T16:11:59.049Z,99.90
2022-09-27T16:14:27.267Z,99.90
2022-09-27T16:17:00.071Z,99.90
2022-09-27T16:19:28.220Z,99.90
2022-09-27T16:21:56.390Z,99.90
2022-09-27T16:24:25.424Z,99.90
2022-09-27T16:26:53.540Z,99.90
2022-09-27T16:29:22.023Z,99.90
2022-09-27T16:31:50.840Z,99.90
2022-09-27T16:34:21.034Z,99.90
2022-09-27T16:36:51.049Z,99.90
2022-09-27T16:39:19.164Z,99.90
2022-09-27T16:41:48.329Z,99.90
2022-09-27T16:44:17.498Z,99.90
2022-09-27T16:46:47.251Z,99.90
2022-09-27T16:49:29.438Z,99.90
2022-09-27T16:52:01.872Z,99.90
2022-09-27T16:54:30.617Z,99.90
2022-09-27T16:57:00.113Z,99.90
2022-09-27T16:59:29.042Z,99.90
2022-09-27T17:01:58.128Z,99.90
2022-09-27T17:04:27.892Z,99.90
2022-09-27T17:06:56.241Z,99.90
2022-09-27T17:09:27.976Z,99.90
2022-09-27T17:11:56.459Z,99.90
2022-09-27T17:14:25.310Z,99.90
2022-09-27T17:16:53.448Z,99.90
2022-09-27T17:19:22.970Z,99.90
2022-09-27T17:21:51.354Z,99.90
2022-09-27T17:24:19.662Z,99.90
2022-09-27T17:26:55.022Z,99.90
2022-09-27T17:29:23.654Z,99.90
2022-09-27T17:31:52.188Z,99.90
2022-09-27T17:34:20.618Z,99.90
2022-09-27T17:36:51.826Z,99.90
2022-09-27T17:39:22.480Z,99.90
2022-09-27T17:41:52.522Z,99.90
2022-09-27T17:44:20.973Z,99.90
2022-09-27T17:47:09.289Z,99.90
2022-09-27T17:49:55.188Z,99.90
2022-09-27T17:52:26.731Z,99.90
2022-09-27T17:54:57.582Z,99.90
2022-09-27T17:57:27.240Z,99.90
2022-09-27T17:59:57.780Z,99.90
2022-09-27T18:02:26.249Z,99.90
2022-09-27T18:04:54.549Z,99.90
2022-09-27T18:07:22.809Z,99.90
2022-09-27T18:09:51.154Z,99.90
2022-09-27T18:12:19.491Z,99.90
2022-09-27T18:14:49.194Z,99.90
2022-09-27T18:17:18.261Z,99.90
2022-09-27T18:19:46.369Z,99.90
2022-09-27T18:22:14.441Z,99.90
2022-09-27T18:24:43.217Z,99.90
2022-09-27T18:27:15.782Z,99.90
2022-09-27T18:29:45.277Z,99.90
2022-09-27T18:32:14.885Z,99.90
2022-09-27T18:34:43.077Z,99.90
2022-09-27T18:37:11.230Z,99.90
2022-09-27T18:39:40.233Z,99.90
2022-09-27T18:42:09.225Z,99.90
2022-09-27T18:44:37.416Z,99.90
2022-09-27T18:47:05.703Z,99.90
2022-09-27T18:49:35.371Z,99.90
2022-09-27T18:52:03.623Z,99.90
2022-09-27T18:54:31.780Z,99.90
2022-09-27T18:57:00.091Z,99.90
2022-09-27T18:59:28.879Z,99.90
2022-09-27T19:01:57.230Z,99.90
2022-09-27T19:04:26.615Z,99.90
2022-09-27T19:06:57.465Z,99.90
2022-09-27T19:09:26.772Z,99.90
2022-09-27T19:11:54.933Z,99.90
2022-09-27T19:14:23.742Z,99.90
2022-09-27T19:16:52.139Z,99.90
2022-09-27T19:19:21.445Z,99.90
2022-09-27T19:21:50.065Z,99.90
2022-09-27T19:24:19.742Z,99.90
2022-09-27T19:26:48.137Z,99.90
2022-09-27T19:29:16.440Z,99.90
2022-09-27T19:31:44.933Z,99.90
2022-09-27T19:34:13.331Z,99.90
2022-09-27T19:36:42.112Z,99.90
2022-09-27T19:39:10.318Z,99.90
2022-09-27T19:41:40.339Z,99.90
2022-09-27T19:44:08.483Z,99.90
2022-09-27T19:46:37.616Z,99.90
2022-09-27T19:49:05.864Z,99.90
2022-09-27T19:51:34.056Z,99.90
2022-09-27T19:54:02.523Z,99.90
2022-09-27T19:56:30.948Z,99.90
2022-09-27T19:59:04.959Z,99.90
2022-09-27T20:01:35.559Z,99.90
2022-09-27T20:04:03.983Z,99.90
2022-09-27T20:06:33.132Z,99.90
2022-09-27T20:09:03.033Z,99.90
2022-09-27T20:11:31.395Z,99.90
2022-09-27T20:14:01.330Z,99.90
2022-09-27T20:16:29.929Z,99.90
2022-09-27T20:18:59.579Z,99.90
2022-09-27T20:21:29.411Z,99.90
2022-09-27T20:23:58.354Z,99.90
2022-09-27T20:26:28.350Z,99.90
2022-09-27T20:28:58.142Z,99.90
2022-09-27T20:31:29.743Z,99.90
2022-09-27T20:33:57.910Z,99.90
2022-09-27T20:36:28.465Z,99.90
2022-09-27T20:39:02.723Z,99.90
2022-09-27T20:41:32.788Z,99.90
2022-09-27T20:44:03.478Z,99.90
2022-09-27T20:46:34.094Z,99.90
2022-09-27T20:49:04.347Z,99.90
2022-09-27T20:51:33.696Z,99.90
2022-09-27T20:54:02.567Z,99.90
2022-09-27T20:56:31.969Z,99.90
2022-09-27T20:59:01.931Z,99.90
2022-09-27T21:01:32.809Z,99.90
2022-09-27T21:04:02.358Z,99.90
2022-09-27T21:06:31.500Z,99.90
2022-09-27T21:09:00.976Z,99.90
2022-09-27T21:11:29.243Z,99.90
2022-09-27T21:13:57.442Z,99.90
2022-09-27T21:16:27.395Z,99.90
2022-09-27T21:18:58.764Z,99.90
2022-09-27T21:21:27.123Z,99.90
2022-09-27T21:24:03.387Z,99.90
2022-09-27T21:29:32.361Z,99.90
2022-09-27T21:32:00.497Z,99.90
2022-09-27T21:34:30.044Z,99.90
2022-09-27T21:36:58.305Z,99.90
2022-09-27T21:39:26.793Z,99.90
2022-09-27T21:41:54.962Z,99.90
2022-09-27T21:44:23.058Z,99.90
2022-09-27T21:46:52.264Z,99.90
2022-09-27T21:49:20.537Z,99.90
2022-09-27T21:51:50.025Z,99.90
2022-09-27T21:54:18.294Z,99.90
2022-09-27T21:56:46.584Z,99.90
2022-09-27T21:59:18.095Z,99.90
2022-09-27T22:01:47.179Z,99.90
2022-09-27T22:04:15.630Z,99.90
2022-09-27T22:06:44.477Z,99.90
2022-09-27T22:09:16.986Z,99.90
2022-09-27T22:11:47.336Z,99.90
2022-09-27T22:14:16.634Z,99.90
2022-09-27T22:16:45.319Z,99.90
2022-09-27T22:19:15.509Z,99.90
2022-09-27T22:21:44.453Z,99.90
2022-09-27T22:24:16.719Z,99.90
2022-09-27T22:26:48.223Z,99.90
2022-09-27T22:29:16.931Z,99.90
2022-09-27T22:31:48.532Z,99.90
2022-09-27T22:34:28.707Z,99.90
2022-09-27T22:36:58.794Z,99.90
2022-09-27T22:39:29.215Z,99.90
2022-09-27T22:41:57.423Z,99.90
2022-09-27T22:44:25.676Z,99.90
2022-09-27T22:46:53.918Z,99.90
2022-09-27T22:49:22.844Z,99.90
2022-09-27T22:51:51.036Z,99.90
2022-09-27T22:54:19.291Z,99.90
2022-09-27T22:56:57.198Z,99.90
2022-09-27T22:59:25.996Z,99.90
2022-09-27T23:01:54.245Z,99.90
2022-09-27T23:04:22.538Z,99.90
2022-09-27T23:06:51.101Z,99.90
2022-09-27T23:09:19.198Z,99.90
2022-09-27T23:11:48.713Z,99.90
2022-09-27T23:14:17.272Z,99.90
2022-09-27T23:16:45.372Z,99.90
2022-09-27T23:19:15.171Z,99.90
2022-09-27T23:21:43.396Z,99.90
2022-09-27T23:24:11.903Z,99.90
2022-09-27T23:26:40.117Z,99.90
2022-09-27T23:29:11.127Z,99.90
2022-09-27T23:31:39.322Z,99.90
2022-09-27T23:34:07.571Z,99.90
2022-09-27T23:36:35.866Z,99.90
2022-09-27T23:39:04.072Z,99.90
2022-09-27T23:41:32.194Z,99.90
2022-09-27T23:44:00.291Z,99.90
2022-09-27T23:46:30.548Z,99.90
2022-09-27T23:48:59.044Z,99.90
2022-09-27T23:51:27.290Z,99.90
2022-09-27T23:53:57.100Z,99.90
2022-09-27T23:56:25.586Z,99.90
2022-09-27T23:58:53.741Z,99.90
